createdAt,value
2018-07-11T06:04:05.664Z,14.41
2018-07-11T06:05:05.476Z,14.41
2018-07-11T06:06:05.432Z,14.70
2018-07-11T06:07:05.402Z,14.41
2018-07-11T06:08:05.379Z,14.61
2018-07-11T06:09:05.364Z,14.51
2018-07-11T06:10:05.383Z,14.41
2018-07-11T06:11:05.292Z,14.41
2018-07-11T06:12:05.281Z,14.70
2018-07-11T06:13:05.260Z,14.99
2018-07-11T06:14:05.255Z,15.19
2018-07-11T06:15:05.193Z,14.61
2018-07-11T06:16:05.288Z,14.99
2018-07-11T06:17:05.161Z,15.38
2018-07-11T06:18:05.164Z,15.38
2018-07-11T06:19:05.106Z,15.67
2018-07-11T06:20:05.106Z,15.48
2018-07-11T06:21:05.142Z,15.96
2018-07-11T06:22:05.039Z,15.58
2018-07-11T06:23:04.985Z,15.86
2018-07-11T06:24:04.977Z,15.96
2018-07-11T06:25:05.013Z,15.96
2018-07-11T06:26:05.016Z,16.44
2018-07-11T06:27:04.894Z,16.35
2018-07-11T06:28:04.920Z,16.35
2018-07-11T06:29:04.867Z,16.83
2018-07-11T06:30:04.815Z,16.54
2018-07-11T06:31:04.853Z,16.83
2018-07-11T06:32:04.823Z,16.74
2018-07-11T06:33:04.727Z,17.12
2018-07-11T06:34:04.698Z,17.32
2018-07-11T06:35:04.676Z,16.93
2018-07-11T06:36:04.712Z,17.02
2018-07-11T06:37:04.620Z,17.51
2018-07-11T06:38:04.622Z,18.09
2018-07-11T06:39:04.591Z,18.09
2018-07-11T06:40:04.550Z,18.19
2018-07-11T06:41:04.637Z,18.67
2018-07-11T06:42:04.507Z,18.77
2018-07-11T06:43:04.477Z,18.38
2018-07-11T06:44:04.464Z,18.67
2018-07-11T06:45:04.446Z,18.87
2018-07-11T06:46:04.405Z,18.87
2018-07-11T06:47:04.435Z,18.96
2018-07-11T06:48:04.341Z,18.96
2018-07-11T06:49:04.329Z,19.06
2018-07-11T06:50:04.310Z,18.87
2018-07-11T06:51:04.269Z,19.35
2018-07-11T06:52:04.399Z,19.15
2018-07-11T06:53:04.229Z,19.45
2018-07-11T06:54:04.190Z,19.83
2018-07-11T06:55:04.153Z,19.35
2018-07-11T06:56:04.201Z,20.03
2018-07-11T06:57:04.214Z,20.12
2018-07-11T06:58:04.083Z,20.03
2018-07-11T06:59:04.053Z,20.12
2018-07-11T07:00:04.029Z,19.93
2018-07-11T07:01:04.005Z,20.21
2018-07-11T07:02:04.075Z,20.31
2018-07-11T07:03:03.953Z,20.12
2018-07-11T07:04:03.925Z,19.93
2018-07-11T07:05:03.922Z,20.31
2018-07-11T07:06:03.872Z,20.51
2018-07-11T07:07:03.954Z,20.89
2018-07-11T07:08:03.823Z,20.99
2018-07-11T07:09:03.802Z,21.19
2018-07-11T07:10:03.789Z,21.57
2018-07-11T07:11:03.771Z,21.48
2018-07-11T07:12:03.817Z,21.96
2018-07-11T07:13:03.693Z,21.96
2018-07-11T07:14:03.658Z,21.86
2018-07-11T07:15:03.656Z,21.96
2018-07-11T07:16:03.620Z,22.06
2018-07-11T07:17:03.693Z,21.57
2018-07-11T07:18:03.561Z,21.57
2018-07-11T07:19:03.539Z,22.16
2018-07-11T07:20:03.519Z,22.25
2018-07-11T07:21:03.483Z,22.25
2018-07-11T07:22:03.451Z,22.44
2018-07-11T07:23:03.564Z,22.92
2018-07-11T07:24:03.419Z,22.44
2018-07-11T07:25:03.385Z,22.54
2018-07-11T07:26:03.356Z,22.92
2018-07-11T07:27:03.347Z,22.92
2018-07-11T07:28:03.302Z,22.74
2018-07-11T07:29:03.431Z,22.74
2018-07-11T07:30:03.243Z,23.12
2018-07-11T07:31:03.260Z,23.32
2018-07-11T07:32:03.227Z,23.50
2018-07-11T07:33:03.181Z,23.50
2018-07-11T07:34:03.258Z,23.80
2018-07-11T07:35:03.129Z,23.60
2018-07-11T07:36:03.083Z,23.70
2018-07-11T07:37:03.090Z,23.70
2018-07-11T07:38:03.040Z,23.70
2018-07-11T07:39:03.112Z,23.60
2018-07-11T07:40:02.990Z,23.80
2018-07-11T07:41:02.966Z,23.80
2018-07-11T07:42:02.944Z,23.80
2018-07-11T07:43:02.906Z,23.50
2018-07-11T07:44:02.935Z,23.50
2018-07-11T07:45:02.867Z,23.59
2018-07-11T07:46:02.849Z,23.59
2018-07-11T07:47:02.866Z,23.59
2018-07-11T07:48:02.787Z,23.59
2018-07-11T07:49:02.874Z,23.40
2018-07-11T07:50:02.725Z,23.98
2018-07-11T07:51:02.740Z,23.88
2018-07-11T07:52:02.694Z,24.17
2018-07-11T07:53:02.656Z,23.59
2018-07-11T07:54:02.690Z,23.88
2018-07-11T07:55:02.629Z,23.98
2018-07-11T07:56:02.576Z,24.37
2018-07-11T07:57:02.550Z,24.08
2018-07-11T07:58:02.515Z,24.17
2018-07-11T07:59:02.507Z,24.17
2018-07-11T08:00:02.526Z,24.27
2018-07-11T08:01:02.456Z,23.98
2018-07-11T08:02:02.421Z,24.46
2018-07-11T08:03:02.380Z,23.97
2018-07-11T08:04:02.365Z,23.87
2018-07-11T08:05:02.349Z,23.97
2018-07-11T08:06:02.429Z,24.35
2018-07-11T08:07:02.323Z,24.07
2018-07-11T08:08:02.263Z,23.97
2018-07-11T08:09:02.240Z,24.16
2018-07-11T08:10:02.204Z,23.98
2018-07-11T08:11:02.269Z,23.97
2018-07-11T08:12:02.166Z,23.87
2018-07-11T08:13:02.137Z,24.16
2018-07-11T08:14:02.130Z,24.65
2018-07-11T08:15:02.090Z,24.45
2018-07-11T08:16:02.160Z,24.66
2018-07-11T08:17:02.039Z,24.74
2018-07-11T08:18:01.995Z,25.43
2018-07-11T08:19:01.994Z,24.74
2018-07-11T08:20:01.961Z,24.95
2018-07-11T08:21:02.033Z,25.13
2018-07-11T08:22:01.887Z,25.03
2018-07-11T08:23:01.880Z,25.13
2018-07-11T08:24:01.858Z,25.03
2018-07-11T08:25:01.815Z,25.13
2018-07-11T08:26:01.904Z,24.93
2018-07-11T08:27:01.848Z,25.03
2018-07-11T08:28:01.747Z,24.84
2018-07-11T08:29:01.721Z,25.13
2018-07-11T08:30:01.696Z,25.03
2018-07-11T08:31:01.648Z,25.42
2018-07-11T08:32:01.738Z,25.13
2018-07-11T08:33:01.615Z,25.61
2018-07-11T08:34:01.643Z,25.03
2018-07-11T08:35:01.608Z,25.51
2018-07-11T08:36:01.521Z,25.23
2018-07-11T08:37:01.590Z,25.42
2018-07-11T08:38:01.458Z,25.23
2018-07-11T08:39:01.452Z,25.32
2018-07-11T08:40:01.404Z,25.71
2018-07-11T08:41:01.383Z,25.61
2018-07-11T08:42:01.391Z,25.61
2018-07-11T08:43:01.445Z,25.42
2018-07-11T08:44:01.319Z,25.51
2018-07-11T08:45:01.307Z,25.42
2018-07-11T08:46:01.289Z,25.71
2018-07-11T08:47:01.239Z,25.51
2018-07-11T08:48:01.386Z,25.42
2018-07-11T08:49:01.173Z,25.42
2018-07-11T08:50:01.152Z,25.32
2018-07-11T08:51:01.139Z,25.23
2018-07-11T08:52:01.102Z,25.32
2018-07-11T08:53:01.118Z,25.13
2018-07-11T08:54:01.043Z,25.42
2018-07-11T08:55:02.789Z,25.42
2018-07-11T08:56:02.899Z,25.51
2018-07-11T08:57:02.494Z,25.32
2018-07-11T08:58:03.699Z,25.42
2018-07-11T08:59:02.651Z,25.90
2018-07-11T09:00:00.885Z,25.71
2018-07-11T09:01:00.856Z,25.42
2018-07-11T09:02:00.867Z,25.42
2018-07-11T09:03:00.806Z,25.32
2018-07-11T09:04:00.991Z,25.51
2018-07-11T09:05:00.751Z,25.23
2018-07-11T09:06:00.732Z,25.32
2018-07-11T09:07:00.728Z,25.31
2018-07-11T09:08:00.677Z,25.32
2018-07-11T09:09:00.669Z,25.13
2018-07-11T09:10:00.722Z,25.13
2018-07-11T09:11:00.600Z,25.13
2018-07-11T09:12:00.599Z,24.93
2018-07-11T09:13:00.543Z,25.03
2018-07-11T09:14:00.533Z,24.93
2018-07-11T09:15:00.605Z,24.55
2018-07-11T09:16:00.483Z,24.84
2018-07-11T09:17:00.437Z,24.84
2018-07-11T09:18:00.496Z,24.92
2018-07-11T09:19:00.379Z,24.65
2018-07-11T09:20:00.358Z,24.84
2018-07-11T09:21:00.435Z,24.65
2018-07-11T09:22:00.321Z,24.65
2018-07-11T09:23:00.275Z,24.74
2018-07-11T09:24:00.320Z,24.55
2018-07-11T09:25:00.226Z,24.65
2018-07-11T09:26:00.314Z,24.55
2018-07-11T09:27:00.172Z,23.97
2018-07-11T09:28:00.160Z,23.97
2018-07-11T09:29:00.118Z,24.55
2018-07-11T09:30:00.098Z,23.97
2018-07-11T09:31:00.187Z,24.16
2018-07-11T09:32:00.057Z,24.35
2018-07-11T09:33:00.031Z,23.87
2018-07-11T09:34:00.014Z,23.58
2018-07-11T09:34:59.962Z,24.16
2018-07-11T09:36:00.009Z,24.07
2018-07-11T09:36:59.914Z,24.07
2018-07-11T09:37:59.905Z,24.26
2018-07-11T09:38:59.859Z,24.26
2018-07-11T09:39:59.841Z,24.44
2018-07-11T09:40:59.794Z,24.26
2018-07-11T09:41:59.837Z,23.96
2018-07-11T09:42:59.811Z,24.05
2018-07-11T09:43:59.805Z,24.24
2018-07-11T09:44:59.700Z,24.05
2018-07-11T09:45:59.672Z,24.15
2018-07-11T09:46:59.759Z,24.05
2018-07-11T09:47:59.610Z,23.86
2018-07-11T09:48:59.597Z,23.96
2018-07-11T09:49:59.565Z,23.96
2018-07-11T09:50:59.548Z,24.05
2018-07-11T09:51:59.607Z,24.34
2018-07-11T09:52:59.477Z,24.24
2018-07-11T09:53:59.455Z,24.05
2018-07-11T09:54:59.452Z,24.24
2018-07-11T09:55:59.415Z,24.44
2018-07-11T09:56:59.368Z,24.05
2018-07-11T09:57:59.421Z,24.24
2018-07-11T09:58:59.352Z,24.24
2018-07-11T09:59:59.290Z,23.96
2018-07-11T10:00:59.272Z,24.05
2018-07-11T10:01:59.263Z,24.34
2018-07-11T10:02:59.315Z,23.86
2018-07-11T10:03:59.185Z,24.15
2018-07-11T10:04:59.161Z,23.86
2018-07-11T10:05:59.129Z,24.24
2018-07-11T10:06:59.118Z,23.57
2018-07-11T10:07:59.156Z,24.05
2018-07-11T10:08:59.072Z,24.05
2018-07-11T10:09:59.044Z,23.96
2018-07-11T10:10:59.015Z,23.96
2018-07-11T10:11:59.048Z,23.66
2018-07-11T10:12:59.082Z,23.57
2018-07-11T10:13:58.918Z,23.57
2018-07-11T10:14:58.914Z,24.05
2018-07-11T10:15:58.873Z,24.82
2018-07-11T10:16:58.849Z,25.20
2018-07-11T10:17:58.812Z,25.29
2018-07-11T10:18:58.851Z,25.01
2018-07-11T10:19:58.772Z,24.82
2018-07-11T10:20:58.757Z,24.54
2018-07-11T10:21:58.715Z,23.96
2018-07-11T10:22:58.682Z,23.66
2018-07-11T10:23:58.756Z,23.18
2018-07-11T10:24:58.668Z,23.38
2018-07-11T10:25:58.612Z,23.18
2018-07-11T10:26:58.584Z,23.38
2018-07-11T10:27:58.570Z,23.08
2018-07-11T10:28:58.625Z,23.47
2018-07-11T10:29:58.503Z,23.57
2018-07-11T10:30:58.483Z,23.76
2018-07-11T10:31:58.436Z,23.66
2018-07-11T10:32:58.426Z,23.57
2018-07-11T10:33:58.386Z,23.76
2018-07-11T10:34:58.517Z,23.66
2018-07-11T10:35:58.338Z,23.57
2018-07-11T10:36:58.308Z,23.28
2018-07-11T10:37:58.307Z,23.47
2018-07-11T10:38:58.319Z,23.18
2018-07-11T10:39:58.237Z,23.38
2018-07-11T10:40:58.251Z,22.89
2018-07-11T10:41:58.211Z,23.18
2018-07-11T10:42:58.146Z,23.18
2018-07-11T10:43:58.130Z,22.60
2018-07-11T10:44:58.135Z,23.57
2018-07-11T10:45:58.137Z,23.38
2018-07-11T10:46:58.046Z,23.38
2018-07-11T10:47:58.018Z,23.38
2018-07-11T10:48:57.991Z,23.38
2018-07-11T10:49:57.968Z,25.21
2018-07-11T10:50:57.938Z,25.31
2018-07-11T10:51:57.952Z,24.82
2018-07-11T10:52:57.889Z,24.82
2018-07-11T10:53:57.909Z,23.96
2018-07-11T10:54:57.832Z,23.96
2018-07-11T10:55:57.812Z,23.76
2018-07-11T10:56:57.929Z,23.66
2018-07-11T10:57:57.804Z,23.57
2018-07-11T10:58:57.713Z,23.38
2018-07-11T10:59:57.739Z,23.08
2018-07-11T11:01:05.702Z,22.60
2018-07-11T11:01:57.735Z,23.08
2018-07-11T11:02:57.614Z,22.89
2018-07-11T11:03:57.594Z,23.18
2018-07-11T11:04:57.613Z,22.99
2018-07-11T11:05:57.592Z,22.89
2018-07-11T11:06:57.611Z,23.66
2018-07-11T11:07:57.575Z,23.76
2018-07-11T11:08:57.463Z,23.57
2018-07-11T11:09:57.432Z,23.57
2018-07-11T11:10:57.397Z,23.28
2018-07-11T11:11:57.383Z,22.60
2018-07-11T11:12:57.462Z,22.80
2018-07-11T11:13:57.333Z,22.80
2018-07-11T11:14:57.306Z,23.57
2018-07-11T11:15:57.269Z,23.96
2018-07-11T11:16:57.254Z,23.86
2018-07-11T11:17:57.331Z,24.15
2018-07-11T11:18:57.221Z,23.96
2018-07-11T11:19:57.161Z,23.57
2018-07-11T11:20:57.146Z,23.76
2018-07-11T11:21:57.121Z,23.66
2018-07-11T11:22:57.096Z,23.66
2018-07-11T11:23:57.175Z,23.57
2018-07-11T11:24:57.029Z,23.47
2018-07-11T11:25:57.004Z,23.96
2018-07-11T11:26:56.980Z,25.21
2018-07-11T11:27:56.947Z,25.70
2018-07-11T11:28:57.003Z,25.60
2018-07-11T11:29:56.990Z,25.31
2018-07-11T11:30:56.870Z,25.40
2018-07-11T11:31:56.867Z,24.44
2018-07-11T11:32:56.811Z,23.76
2018-07-11T11:33:56.794Z,24.05
2018-07-11T11:34:56.862Z,23.96
2018-07-11T11:35:56.734Z,23.86
2018-07-11T11:36:56.730Z,24.24
2018-07-11T11:37:56.690Z,24.15
2018-07-11T11:38:56.652Z,24.34
2018-07-11T11:39:56.674Z,24.54
2018-07-11T11:40:56.614Z,24.82
2018-07-11T11:41:56.882Z,24.92
2018-07-11T11:42:56.664Z,25.21
2018-07-11T11:43:56.535Z,24.82
2018-07-11T11:44:56.535Z,25.32
2018-07-11T11:45:56.473Z,25.51
2018-07-11T11:46:56.436Z,24.84
2018-07-11T11:47:56.583Z,25.13
2018-07-11T11:48:56.748Z,24.84
2018-07-11T11:49:56.374Z,25.03
2018-07-11T11:50:56.512Z,25.03
2018-07-11T11:51:56.297Z,25.13
2018-07-11T11:52:56.284Z,25.23
2018-07-11T11:53:56.267Z,26.01
2018-07-11T11:54:56.241Z,26.68
2018-07-11T11:55:56.285Z,26.78
2018-07-11T11:56:56.177Z,27.08
2018-07-11T11:57:56.145Z,27.17
2018-07-11T11:58:56.128Z,27.08
2018-07-11T11:59:56.161Z,28.43
2018-07-11T12:00:56.311Z,31.81
2018-07-11T12:01:56.162Z,33.07
2018-07-11T12:02:56.017Z,38.29
2018-07-11T12:03:55.999Z,38.60
2018-07-11T12:04:55.975Z,38.79
2018-07-11T12:05:56.000Z,41.79
2018-07-11T12:06:56.010Z,40.63
2018-07-11T12:07:55.886Z,37.34
2018-07-11T12:08:55.850Z,35.89
2018-07-11T12:09:55.916Z,37.24
2018-07-11T12:10:55.798Z,37.92
2018-07-11T12:11:55.927Z,35.80
2018-07-11T12:12:55.763Z,35.80
2018-07-11T12:13:55.723Z,36.66
2018-07-11T12:14:55.738Z,34.75
2018-07-11T12:15:55.662Z,33.10
2018-07-11T12:16:55.743Z,34.94
2018-07-11T12:17:55.640Z,34.45
2018-07-11T12:18:55.582Z,33.49
2018-07-11T12:19:55.592Z,33.01
2018-07-11T12:20:55.536Z,33.78
2018-07-11T12:21:55.630Z,35.54
2018-07-11T12:22:55.494Z,44.30
2018-07-11T12:23:55.480Z,59.97
2018-07-11T12:24:55.452Z,74.40
2018-07-11T12:25:55.428Z,79.16
2018-07-11T12:26:55.398Z,79.16
2018-07-11T12:27:55.472Z,78.92
2018-07-11T12:28:55.353Z,76.79
2018-07-11T12:29:55.312Z,76.60
2018-07-11T12:30:55.492Z,73.10
2018-07-11T12:31:55.246Z,76.65
2018-07-11T12:32:55.292Z,76.27
2018-07-11T12:33:55.266Z,72.74
2018-07-11T12:34:55.220Z,66.53
2018-07-11T12:35:55.155Z,64.78
2018-07-11T12:36:55.117Z,62.75
2018-07-11T12:37:55.098Z,64.30
2018-07-11T12:38:55.191Z,65.20
2018-07-11T12:39:55.046Z,67.54
2018-07-11T12:40:55.019Z,71.84
2018-07-11T12:41:54.988Z,83.72
2018-07-11T12:42:54.990Z,83.96
2018-07-11T12:43:55.091Z,86.78
2018-07-11T12:44:54.935Z,81.01
2018-07-11T12:45:54.895Z,78.25
2018-07-11T12:46:54.880Z,75.24
2018-07-11T12:47:54.836Z,72.81
2018-07-11T12:48:55.029Z,69.57
2018-07-11T12:49:54.805Z,66.27
2018-07-11T12:50:54.784Z,62.19
2018-07-11T12:51:54.759Z,60.64
2018-07-11T12:52:54.737Z,59.48
2018-07-11T12:53:54.780Z,57.25
2018-07-11T12:54:54.662Z,55.18
2018-07-11T12:55:54.663Z,53.27
2018-07-11T12:56:54.621Z,52.56
2018-07-11T12:57:54.636Z,51.33
2018-07-11T12:58:54.669Z,51.11
2018-07-11T12:59:54.544Z,54.11
2018-07-11T13:00:54.546Z,55.38
2018-07-11T13:01:54.497Z,54.70
2018-07-11T13:02:54.461Z,55.96
2018-07-11T13:03:54.463Z,55.77
2018-07-11T13:04:54.487Z,56.25
2018-07-11T13:05:54.384Z,49.95
2018-07-11T13:06:54.360Z,48.78
2018-07-11T13:07:54.354Z,44.90
2018-07-11T13:08:54.324Z,41.99
2018-07-11T13:09:54.276Z,41.80
2018-07-11T13:10:54.372Z,42.86
2018-07-11T13:11:54.225Z,42.29
2018-07-11T13:12:54.245Z,43.26
2018-07-11T13:13:54.345Z,42.86
2018-07-11T13:14:54.164Z,42.38
2018-07-11T13:15:54.368Z,42.67
2018-07-11T13:16:54.305Z,43.74
2018-07-11T13:17:54.092Z,43.54
2018-07-11T13:18:54.070Z,44.13
2018-07-11T13:19:54.050Z,44.13
2018-07-11T13:20:54.116Z,45.20
2018-07-11T13:21:53.979Z,44.71
2018-07-11T13:22:53.973Z,44.51
2018-07-11T13:23:53.952Z,42.96
2018-07-11T13:24:53.955Z,46.55
2018-07-11T13:25:54.051Z,42.77
2018-07-11T13:26:53.876Z,43.84
2018-07-11T13:27:53.870Z,44.81
2018-07-11T13:28:54.226Z,45.10
2018-07-11T13:29:53.939Z,45.10
2018-07-11T13:30:54.221Z,45.29
2018-07-11T13:31:53.722Z,41.89
2018-07-11T13:32:53.803Z,38.40
2018-07-11T13:33:53.679Z,36.18
2018-07-11T13:34:53.961Z,36.46
2018-07-11T13:35:53.751Z,41.61
2018-07-11T13:36:53.621Z,38.60
2018-07-11T13:37:53.687Z,40.44
2018-07-11T13:38:53.563Z,39.18
2018-07-11T13:39:53.544Z,37.15
2018-07-11T13:40:53.624Z,38.62
2018-07-11T13:41:53.509Z,39.78
2018-07-11T13:42:53.454Z,38.81
2018-07-11T13:43:53.463Z,42.79
2018-07-11T13:44:53.660Z,48.52
2018-07-11T13:45:53.394Z,45.51
2018-07-11T13:46:53.446Z,51.81
2018-07-11T13:47:53.314Z,50.74
2018-07-11T13:48:53.314Z,52.81
2018-07-11T13:49:53.289Z,54.17
2018-07-11T13:50:53.277Z,51.45
2018-07-11T13:51:54.232Z,57.08
2018-07-11T13:52:53.341Z,62.71
2018-07-11T13:53:53.191Z,63.29
2018-07-11T13:54:53.198Z,57.37
2018-07-11T13:55:53.133Z,59.61
2018-07-11T13:56:53.121Z,57.86
2018-07-11T13:57:53.132Z,59.03
2018-07-11T13:58:53.099Z,62.23
2018-07-11T13:59:53.027Z,61.84
2018-07-11T14:00:53.095Z,65.72
2018-07-11T14:01:52.978Z,62.16
2018-07-11T14:02:53.075Z,65.56
2018-07-11T14:03:52.943Z,67.89
2018-07-11T14:04:52.923Z,68.57
2018-07-11T14:05:52.908Z,64.20
2018-07-11T14:06:52.849Z,65.75
2018-07-11T14:07:52.946Z,61.19
2018-07-11T14:08:52.817Z,62.35
2018-07-11T14:09:52.808Z,64.53
2018-07-11T14:10:52.758Z,63.55
2018-07-11T14:11:52.753Z,59.86
2018-07-11T14:12:52.816Z,68.02
2018-07-11T14:13:52.697Z,76.77
2018-07-11T14:14:52.683Z,76.97
2018-07-11T14:15:52.725Z,70.55
2018-07-11T14:16:52.601Z,70.10
2018-07-11T14:17:52.656Z,74.18
2018-07-11T14:18:52.566Z,76.90
2018-07-11T14:19:52.538Z,84.20
2018-07-11T14:20:52.534Z,83.75
2018-07-11T14:21:52.549Z,83.75
2018-07-11T14:22:53.061Z,83.40
2018-07-11T14:23:52.974Z,87.39
2018-07-11T14:24:52.470Z,92.40
2018-07-11T14:25:52.436Z,88.70
2018-07-11T14:26:52.359Z,89.38
2018-07-11T14:27:52.368Z,95.61
2018-07-11T14:28:52.304Z,88.94
2018-07-11T14:29:52.454Z,91.86
2018-07-11T14:30:52.422Z,96.30
2018-07-11T14:31:52.274Z,91.52
2018-07-11T14:32:52.231Z,89.77
2018-07-11T14:33:52.228Z,96.39
2018-07-11T14:34:52.375Z,95.95
2018-07-11T14:35:52.217Z,94.01
2018-07-11T14:36:52.650Z,88.94
2018-07-11T14:37:52.138Z,95.86
2018-07-11T14:38:52.143Z,97.90
2018-07-11T14:39:52.397Z,96.73
2018-07-11T14:40:52.076Z,96.44
2018-07-11T14:41:52.096Z,97.80
2018-07-11T14:42:51.998Z,96.64
2018-07-11T14:43:52.035Z,95.23
2018-07-11T14:44:52.315Z,91.33
2018-07-11T14:45:51.971Z,92.07
2018-07-11T14:46:52.015Z,93.23
2018-07-11T14:47:51.864Z,91.77
2018-07-11T14:48:51.848Z,91.77
2018-07-11T14:49:52.464Z,92.70
2018-07-11T14:50:51.825Z,88.66
2018-07-11T14:51:51.759Z,88.23
2018-07-11T14:52:51.795Z,88.56
2018-07-11T14:53:51.708Z,88.85
2018-07-11T14:54:52.221Z,86.13
2018-07-11T14:55:51.869Z,91.04
2018-07-11T14:56:51.744Z,97.80
2018-07-11T14:57:52.040Z,99.99
2018-07-11T14:58:51.799Z,99.99
2018-07-11T14:59:51.715Z,99.99
2018-07-11T15:00:51.901Z,99.99
2018-07-11T15:01:51.659Z,99.99
2018-07-11T15:02:51.699Z,99.99
2018-07-11T15:03:51.640Z,99.99
2018-07-11T15:04:51.783Z,99.99
2018-07-11T15:05:51.582Z,99.99
2018-07-11T15:06:51.799Z,99.99
2018-07-11T15:07:51.382Z,99.99
2018-07-11T15:08:51.521Z,99.99
2018-07-11T15:09:51.344Z,99.99
2018-07-11T15:10:51.340Z,99.99
2018-07-11T15:11:51.310Z,99.99
2018-07-11T15:12:51.469Z,99.99
2018-07-11T15:13:51.331Z,99.99
2018-07-11T15:14:51.245Z,99.99
2018-07-11T15:15:51.221Z,99.99
2018-07-11T15:16:51.241Z,99.99
2018-07-11T15:17:51.321Z,99.99
2018-07-11T15:18:51.134Z,99.99
2018-07-11T15:19:51.131Z,99.99
2018-07-11T15:20:51.104Z,99.99
2018-07-11T15:21:51.064Z,99.99
2018-07-11T15:22:51.208Z,99.99
2018-07-11T15:23:51.084Z,99.99
2018-07-11T15:24:51.019Z,99.99
2018-07-11T15:25:50.982Z,99.99
2018-07-11T15:26:50.957Z,99.99
2018-07-11T15:27:51.050Z,98.73
2018-07-11T15:28:50.934Z,99.99
2018-07-11T15:29:50.906Z,99.99
2018-07-11T15:30:50.895Z,99.99
2018-07-11T15:31:50.861Z,99.99
2018-07-11T15:32:50.891Z,99.99
2018-07-11T15:33:50.817Z,99.99
2018-07-11T15:34:50.810Z,99.99
2018-07-11T15:35:50.766Z,99.99
2018-07-11T15:36:50.730Z,99.99
2018-07-11T15:37:50.781Z,99.99
2018-07-11T15:38:50.790Z,99.99
2018-07-11T15:39:51.202Z,99.99
2018-07-11T15:40:50.646Z,99.99
2018-07-11T15:41:50.645Z,99.99
2018-07-11T15:42:50.610Z,99.99
2018-07-11T15:43:50.598Z,99.99
2018-07-11T15:44:50.672Z,99.99
2018-07-11T15:45:50.531Z,99.99
2018-07-11T15:46:50.518Z,99.99
2018-07-11T15:47:50.510Z,99.99
2018-07-11T15:48:50.461Z,99.99
2018-07-11T15:49:50.493Z,99.99
2018-07-11T15:50:50.652Z,99.99
2018-07-11T15:51:50.430Z,99.99
2018-07-11T15:52:50.491Z,99.99
2018-07-11T15:53:50.386Z,99.99
2018-07-11T15:54:50.343Z,99.99
2018-07-11T15:55:50.347Z,99.99
2018-07-11T15:56:50.381Z,99.99
2018-07-11T15:57:50.296Z,99.99
2018-07-11T15:58:50.320Z,99.99
2018-07-11T15:59:50.348Z,99.99
2018-07-11T16:00:50.209Z,99.99
2018-07-11T16:01:50.302Z,99.99
2018-07-11T16:02:50.162Z,99.99
2018-07-11T16:03:50.144Z,99.99
2018-07-11T16:04:50.197Z,99.99
2018-07-11T16:05:50.175Z,99.99
2018-07-11T16:06:50.233Z,99.99
2018-07-11T16:07:50.089Z,99.99
2018-07-11T16:08:50.097Z,99.99
2018-07-11T16:09:50.024Z,99.99
2018-07-11T16:10:50.027Z,99.99
2018-07-11T16:11:50.034Z,99.99
2018-07-11T16:12:50.033Z,99.99
2018-07-11T16:13:49.918Z,99.99
2018-07-11T16:14:49.888Z,99.99
2018-07-11T16:15:49.905Z,99.99
2018-07-11T16:16:49.965Z,99.99
2018-07-11T16:17:49.883Z,99.99
2018-07-11T16:18:49.800Z,99.99
2018-07-11T16:19:49.804Z,99.99
2018-07-11T16:20:49.818Z,99.99
2018-07-11T16:21:49.816Z,99.99
2018-07-11T16:22:49.829Z,99.99
2018-07-11T16:23:49.708Z,99.99
2018-07-11T16:24:49.671Z,99.99
2018-07-11T16:25:49.701Z,99.99
2018-07-11T16:26:49.667Z,99.99
2018-07-11T16:27:49.717Z,99.99
2018-07-11T16:28:49.608Z,99.99
2018-07-11T16:29:49.762Z,99.99
2018-07-11T16:30:49.590Z,99.99
2018-07-11T16:31:49.576Z,99.99
2018-07-11T16:32:49.622Z,99.99
2018-07-11T16:33:49.498Z,99.99
2018-07-11T16:34:49.509Z,99.99
2018-07-11T16:35:49.443Z,99.99
2018-07-11T16:36:49.440Z,99.99
2018-07-11T16:37:49.470Z,99.99
2018-07-11T16:38:49.497Z,99.99
2018-07-11T16:39:49.365Z,99.99
2018-07-11T16:40:49.350Z,99.99
2018-07-11T16:41:49.332Z,99.99
2018-07-11T16:42:49.328Z,99.99
2018-07-11T16:43:49.291Z,99.99
2018-07-11T16:44:49.356Z,99.99
2018-07-11T16:45:49.344Z,99.99
2018-07-11T16:46:49.292Z,99.99
2018-07-11T16:47:49.226Z,99.99
2018-07-11T16:48:49.191Z,99.99
2018-07-11T16:49:49.213Z,99.99
2018-07-11T16:50:49.146Z,99.99
2018-07-11T16:51:49.108Z,99.99
2018-07-11T16:52:49.105Z,99.99
2018-07-11T16:53:49.089Z,99.99
2018-07-11T16:54:49.150Z,99.99
2018-07-11T16:55:49.050Z,99.99
2018-07-11T16:56:49.030Z,99.99
2018-07-11T16:57:48.990Z,99.99
2018-07-11T16:58:48.968Z,99.99
2018-07-11T16:59:49.070Z,99.99
2018-07-11T17:00:48.946Z,99.99
2018-07-11T17:01:48.930Z,99.99
2018-07-11T17:02:48.909Z,99.99
2018-07-11T17:03:48.889Z,99.99
2018-07-11T17:04:49.009Z,99.99
2018-07-11T17:05:48.927Z,99.99
2018-07-11T17:06:48.823Z,99.99
2018-07-11T17:07:49.178Z,99.99
2018-07-11T17:08:48.790Z,99.99
2018-07-11T17:09:48.747Z,99.99
2018-07-11T17:10:48.838Z,99.99
2018-07-11T17:11:48.707Z,99.99
2018-07-11T17:12:48.683Z,99.99
2018-07-11T17:13:48.668Z,99.99
2018-07-11T17:14:48.667Z,99.99
2018-07-11T17:15:48.742Z,99.99
2018-07-11T17:16:48.608Z,99.99
2018-07-11T17:17:48.571Z,99.99
2018-07-11T17:18:48.641Z,99.99
2018-07-11T17:19:48.531Z,99.99
2018-07-11T17:20:48.629Z,99.99
2018-07-11T17:21:48.505Z,99.99
2018-07-11T17:22:48.595Z,99.99
2018-07-11T17:23:48.443Z,99.99
2018-07-11T17:24:48.435Z,99.99
2018-07-11T17:25:48.415Z,99.99
2018-07-11T17:26:48.494Z,99.99
2018-07-11T17:27:48.376Z,99.99
2018-07-11T17:28:48.354Z,99.99
2018-07-11T17:29:48.375Z,99.99
2018-07-11T17:30:48.316Z,99.99
2018-07-11T17:31:48.293Z,99.99
2018-07-11T17:32:48.464Z,99.99
2018-07-11T17:33:48.252Z,99.99
2018-07-11T17:34:48.272Z,99.99
2018-07-11T17:35:48.252Z,99.99
2018-07-11T17:36:48.201Z,99.99
2018-07-11T17:37:48.174Z,99.99
2018-07-11T17:38:48.251Z,99.99
2018-07-11T17:39:48.116Z,99.99
2018-07-11T17:40:48.108Z,99.99
2018-07-11T17:41:48.111Z,99.99
2018-07-11T17:42:48.100Z,99.99
2018-07-11T17:43:48.146Z,99.99
2018-07-11T17:44:48.010Z,99.99
2018-07-11T17:45:48.009Z,99.99
2018-07-11T17:46:47.970Z,99.99
2018-07-11T17:47:47.977Z,99.99
2018-07-11T17:48:48.013Z,99.99
2018-07-11T17:49:48.065Z,99.99
2018-07-11T17:50:47.906Z,99.99
2018-07-11T17:51:47.919Z,99.99
2018-07-11T17:52:47.897Z,99.99
2018-07-11T17:53:47.837Z,99.99
2018-07-11T17:54:47.924Z,99.99
2018-07-11T17:55:47.791Z,99.99
2018-07-11T17:56:47.809Z,99.99
2018-07-11T17:57:47.755Z,99.99
2018-07-11T17:58:47.738Z,99.99
2018-07-11T17:59:47.877Z,99.99
2018-07-11T18:00:47.705Z,99.99
2018-07-11T18:01:47.694Z,99.99
2018-07-11T18:02:47.652Z,99.99
2018-07-11T18:03:47.680Z,99.99
2018-07-11T18:04:47.720Z,99.99
2018-07-11T18:05:47.628Z,99.99
2018-07-11T18:06:47.568Z,99.99
2018-07-11T18:07:47.580Z,99.99
2018-07-11T18:08:47.531Z,99.99
2018-07-11T18:09:47.648Z,99.99
2018-07-11T18:10:47.512Z,99.99
2018-07-11T18:11:47.478Z,99.99
2018-07-11T18:12:47.442Z,99.99
2018-07-11T18:13:47.427Z,99.99
2018-07-11T18:14:47.386Z,99.99
2018-07-11T18:15:47.986Z,99.99
2018-07-11T18:16:47.365Z,99.99
2018-07-11T18:17:47.453Z,99.99
2018-07-11T18:18:47.329Z,99.99
2018-07-11T18:19:47.371Z,99.99
2018-07-11T18:20:47.275Z,99.99
2018-07-11T18:21:47.358Z,99.99
2018-07-11T18:22:47.234Z,99.99
2018-07-11T18:23:47.205Z,99.99
2018-07-11T18:24:47.195Z,99.99
2018-07-11T18:25:47.170Z,99.99
2018-07-11T18:26:47.252Z,99.99
2018-07-11T18:27:47.133Z,99.99
2018-07-11T18:28:47.100Z,99.99
2018-07-11T18:29:47.102Z,99.99
2018-07-11T18:30:47.069Z,99.99
2018-07-11T18:31:47.040Z,99.99
2018-07-11T18:32:47.133Z,99.99
2018-07-11T18:33:46.999Z,99.99
2018-07-11T18:34:47.048Z,99.99
2018-07-11T18:35:46.958Z,99.99
2018-07-11T18:36:46.957Z,99.99
2018-07-11T18:37:47.034Z,99.99
2018-07-11T18:38:46.898Z,99.99
2018-07-11T18:39:46.891Z,99.99
2018-07-11T18:40:46.882Z,99.99
2018-07-11T18:41:46.837Z,99.99
2018-07-11T18:42:46.926Z,99.99
2018-07-11T18:43:46.817Z,99.99
2018-07-11T18:44:46.789Z,99.99
2018-07-11T18:45:46.869Z,99.99
2018-07-11T18:46:46.743Z,99.99
2018-07-11T18:47:46.826Z,99.99
2018-07-11T18:48:46.695Z,99.99
2018-07-11T18:49:46.687Z,99.99
2018-07-11T18:52:46.721Z,99.99
2018-07-11T18:53:46.596Z,99.99
2018-07-11T18:54:46.575Z,99.99
2018-07-11T18:55:46.542Z,99.99
2018-07-11T18:56:46.514Z,99.99
2018-07-11T18:57:46.666Z,99.99